sensor_id;sensor_type;location;lat;lon;timestamp;pressure;altitude;pressure_sealevel;temperature;humidity
15193;BME280;7697;51.630;7.484;2022-08-03T00:02:50;100829.41;;;22.77;71.66
15193;BME280;7697;51.630;7.484;2022-08-03T00:07:52;100831.81;;;22.73;71.84
15193;BME280;7697;51.630;7.484;2022-08-03T00:12:54;100824.00;;;22.67;72.00
15193;BME280;7697;51.630;7.484;2022-08-03T00:17:57;100824.81;;;22.62;72.22
15193;BME280;7697;51.630;7.484;2022-08-03T00:22:59;100820.22;;;22.58;72.19
15193;BME280;7697;51.630;7.484;2022-08-03T00:28:00;100811.88;;;22.49;72.83
15193;BME280;7697;51.630;7.484;2022-08-03T00:33:04;100812.16;;;22.42;73.38
15193;BME280;7697;51.630;7.484;2022-08-03T00:38:05;100800.28;;;22.38;73.80
15193;BME280;7697;51.630;7.484;2022-08-03T00:43:07;100804.06;;;22.32;74.13
15193;BME280;7697;51.630;7.484;2022-08-03T00:48:11;100802.47;;;22.26;73.91
15193;BME280;7697;51.630;7.484;2022-08-03T00:53:13;100796.00;;;22.17;74.29
15193;BME280;7697;51.630;7.484;2022-08-03T00:58:15;100794.91;;;22.18;74.05
15193;BME280;7697;51.630;7.484;2022-08-03T01:03:18;100802.19;;;22.13;74.29
15193;BME280;7697;51.630;7.484;2022-08-03T01:08:22;100798.13;;;22.10;74.27
15193;BME280;7697;51.630;7.484;2022-08-03T01:13:35;100793.84;;;22.09;74.63
15193;BME280;7697;51.630;7.484;2022-08-03T01:18:46;100789.22;;;22.04;74.62
15193;BME280;7697;51.630;7.484;2022-08-03T01:24:01;100796.53;;;21.99;75.36
15193;BME280;7697;51.630;7.484;2022-08-03T01:29:16;100788.94;;;21.91;75.61
15193;BME280;7697;51.630;7.484;2022-08-03T01:34:30;100795.66;;;21.78;75.73
15193;BME280;7697;51.630;7.484;2022-08-03T01:39:34;100787.28;;;21.75;75.54
15193;BME280;7697;51.630;7.484;2022-08-03T01:44:40;100786.75;;;21.73;76.17
15193;BME280;7697;51.630;7.484;2022-08-03T01:49:45;100775.94;;;21.67;76.60
15193;BME280;7697;51.630;7.484;2022-08-03T01:54:50;100778.66;;;21.62;76.53
15193;BME280;7697;51.630;7.484;2022-08-03T01:59:54;100770.84;;;21.56;76.52
15193;BME280;7697;51.630;7.484;2022-08-03T02:04:59;100782.66;;;21.50;76.44
15193;BME280;7697;51.630;7.484;2022-08-03T02:10:03;100770.81;;;21.46;76.70
15193;BME280;7697;51.630;7.484;2022-08-03T02:15:06;100776.16;;;21.41;77.05
15193;BME280;7697;51.630;7.484;2022-08-03T02:20:11;100772.41;;;21.37;77.01
15193;BME280;7697;51.630;7.484;2022-08-03T02:25:14;100773.44;;;21.30;77.16
15193;BME280;7697;51.630;7.484;2022-08-03T02:30:17;100777.22;;;21.29;77.28
15193;BME280;7697;51.630;7.484;2022-08-03T02:35:23;100777.22;;;21.29;77.84
15193;BME280;7697;51.630;7.484;2022-08-03T02:40:28;100775.84;;;21.22;78.24
15193;BME280;7697;51.630;7.484;2022-08-03T02:45:31;100780.16;;;21.18;78.41
15193;BME280;7697;51.630;7.484;2022-08-03T02:50:38;100773.63;;;21.14;78.92
15193;BME280;7697;51.630;7.484;2022-08-03T02:55:40;100770.38;;;21.07;79.28
15193;BME280;7697;51.630;7.484;2022-08-03T03:00:43;100769.00;;;21.04;79.38
15193;BME280;7697;51.630;7.484;2022-08-03T03:05:48;100768.50;;;21.02;79.76
15193;BME280;7697;51.630;7.484;2022-08-03T03:10:50;100770.06;;;20.93;79.52
15193;BME280;7697;51.630;7.484;2022-08-03T03:15:53;100762.22;;;20.86;79.77
15193;BME280;7697;51.630;7.484;2022-08-03T03:21:00;100762.47;;;20.85;79.83
15193;BME280;7697;51.630;7.484;2022-08-03T03:26:02;100769.47;;;20.81;79.79
15193;BME280;7697;51.630;7.484;2022-08-03T03:31:05;100773.47;;;20.78;80.08
15193;BME280;7697;51.630;7.484;2022-08-03T03:36:09;100779.94;;;20.77;80.64
15193;BME280;7697;51.630;7.484;2022-08-03T03:41:10;100775.34;;;20.73;80.60
15193;BME280;7697;51.630;7.484;2022-08-03T03:46:12;100780.44;;;20.69;80.44
15193;BME280;7697;51.630;7.484;2022-08-03T03:51:16;100781.22;;;20.65;80.56
15193;BME280;7697;51.630;7.484;2022-08-03T03:56:18;100780.34;;;20.54;80.84
15193;BME280;7697;51.630;7.484;2022-08-03T04:01:19;100766.34;;;20.52;80.87
15193;BME280;7697;51.630;7.484;2022-08-03T04:06:22;100771.69;;;20.47;81.30
15193;BME280;7697;51.630;7.484;2022-08-03T04:11:46;100772.53;;;20.47;81.50
15193;BME280;7697;51.630;7.484;2022-08-03T04:16:50;100775.97;;;20.43;81.64
15193;BME280;7697;51.630;7.484;2022-08-03T04:21:56;100770.03;;;20.41;81.62
15193;BME280;7697;51.630;7.484;2022-08-03T04:27:03;100772.72;;;20.41;82.25
15193;BME280;7697;51.630;7.484;2022-08-03T04:32:07;100775.88;;;20.33;82.01
15193;BME280;7697;51.630;7.484;2022-08-03T04:37:13;100780.44;;;20.32;82.05
15193;BME280;7697;51.630;7.484;2022-08-03T04:42:16;100783.13;;;20.32;81.82
15193;BME280;7697;51.630;7.484;2022-08-03T04:47:20;100787.22;;;20.35;82.15
15193;BME280;7697;51.630;7.484;2022-08-03T04:52:23;100792.81;;;20.33;82.42
15193;BME280;7697;51.630;7.484;2022-08-03T04:57:25;100794.22;;;20.36;82.42
15193;BME280;7697;51.630;7.484;2022-08-03T05:02:26;100793.72;;;20.39;82.30
15193;BME280;7697;51.630;7.484;2022-08-03T05:07:30;100791.09;;;20.49;82.30
15193;BME280;7697;51.630;7.484;2022-08-03T05:12:31;100786.81;;;20.53;82.32
15193;BME280;7697;51.630;7.484;2022-08-03T05:17:33;100800.84;;;20.60;82.51
15193;BME280;7697;51.630;7.484;2022-08-03T05:22:37;100799.28;;;20.69;82.38
15193;BME280;7697;51.630;7.484;2022-08-03T05:27:39;100782.13;;;20.80;82.71
15193;BME280;7697;51.630;7.484;2022-08-03T05:32:42;100790.25;;;20.90;82.90
15193;BME280;7697;51.630;7.484;2022-08-03T05:37:45;100789.75;;;20.98;82.75
15193;BME280;7697;51.630;7.484;2022-08-03T05:42:47;100790.88;;;21.08;83.18
15193;BME280;7697;51.630;7.484;2022-08-03T05:47:49;100796.31;;;21.18;82.63
15193;BME280;7697;51.630;7.484;2022-08-03T05:52:54;100799.31;;;21.26;82.62
15193;BME280;7697;51.630;7.484;2022-08-03T05:57:56;100807.69;;;21.40;82.17
15193;BME280;7697;51.630;7.484;2022-08-03T06:02:58;100810.97;;;21.57;82.07
15193;BME280;7697;51.630;7.484;2022-08-03T06:08:02;100812.66;;;21.84;80.98
15193;BME280;7697;51.630;7.484;2022-08-03T06:13:03;100815.41;;;22.09;80.76
15193;BME280;7697;51.630;7.484;2022-08-03T06:18:05;100808.66;;;22.42;80.67
15193;BME280;7697;51.630;7.484;2022-08-03T06:23:08;100809.41;;;22.68;79.48
15193;BME280;7697;51.630;7.484;2022-08-03T06:28:10;100813.38;;;23.01;78.40
15193;BME280;7697;51.630;7.484;2022-08-03T06:33:13;100809.22;;;23.29;77.45
15193;BME280;7697;51.630;7.484;2022-08-03T06:38:17;100808.78;;;24.05;74.94
15193;BME280;7697;51.630;7.484;2022-08-03T06:43:19;100810.34;;;24.45;72.63
15193;BME280;7697;51.630;7.484;2022-08-03T06:48:20;100809.47;;;24.78;71.85
15193;BME280;7697;51.630;7.484;2022-08-03T06:53:23;100805.06;;;25.30;71.59
15193;BME280;7697;51.630;7.484;2022-08-03T06:58:25;100812.63;;;25.52;71.76
15193;BME280;7697;51.630;7.484;2022-08-03T07:03:27;100818.44;;;25.83;68.59
15193;BME280;7697;51.630;7.484;2022-08-03T07:08:30;100822.47;;;26.36;67.02
15193;BME280;7697;51.630;7.484;2022-08-03T07:13:32;100819.28;;;26.15;68.54
15193;BME280;7697;51.630;7.484;2022-08-03T07:18:36;100821.44;;;26.32;67.50
15193;BME280;7697;51.630;7.484;2022-08-03T07:23:40;100821.50;;;26.46;66.84
15193;BME280;7697;51.630;7.484;2022-08-03T07:28:41;100821.03;;;26.71;66.09
15193;BME280;7697;51.630;7.484;2022-08-03T07:33:43;100827.59;;;27.25;63.46
15193;BME280;7697;51.630;7.484;2022-08-03T07:38:46;100818.13;;;27.36;63.27
15193;BME280;7697;51.630;7.484;2022-08-03T07:43:48;100822.88;;;27.67;61.45
15193;BME280;7697;51.630;7.484;2022-08-03T07:48:50;100825.72;;;27.97;59.42
15193;BME280;7697;51.630;7.484;2022-08-03T07:53:53;100836.13;;;28.40;59.43
15193;BME280;7697;51.630;7.484;2022-08-03T07:58:56;100848.75;;;28.67;57.33
15193;BME280;7697;51.630;7.484;2022-08-03T08:03:59;100837.78;;;28.50;59.90
15193;BME280;7697;51.630;7.484;2022-08-03T08:09:02;100831.91;;;28.65;57.93
15193;BME280;7697;51.630;7.484;2022-08-03T08:14:04;100830.28;;;28.86;57.68
15193;BME280;7697;51.630;7.484;2022-08-03T08:19:06;100833.88;;;29.13;55.94
15193;BME280;7697;51.630;7.484;2022-08-03T08:24:10;100829.31;;;29.56;56.29
15193;BME280;7697;51.630;7.484;2022-08-03T08:29:11;100824.34;;;29.75;55.92
15193;BME280;7697;51.630;7.484;2022-08-03T08:34:13;100826.53;;;30.34;52.27
15193;BME280;7697;51.630;7.484;2022-08-03T08:39:16;100823.34;;;30.87;50.80
15193;BME280;7697;51.630;7.484;2022-08-03T08:44:18;100818.28;;;30.98;51.92
15193;BME280;7697;51.630;7.484;2022-08-03T08:49:21;100829.56;;;31.55;49.46
15193;BME280;7697;51.630;7.484;2022-08-03T08:54:25;100834.69;;;31.98;48.94
15193;BME280;7697;51.630;7.484;2022-08-03T08:59:31;100825.59;;;32.06;48.72
15193;BME280;7697;51.630;7.484;2022-08-03T09:04:33;100834.44;;;32.57;45.91
15193;BME280;7697;51.630;7.484;2022-08-03T09:09:36;100830.56;;;32.94;46.17
15193;BME280;7697;51.630;7.484;2022-08-03T09:14:38;100835.50;;;33.37;43.13
15193;BME280;7697;51.630;7.484;2022-08-03T09:19:40;100834.59;;;33.33;44.82
15193;BME280;7697;51.630;7.484;2022-08-03T09:24:55;100824.25;;;33.82;42.56
15193;BME280;7697;51.630;7.484;2022-08-03T09:29:57;100830.44;;;33.39;44.83
15193;BME280;7697;51.630;7.484;2022-08-03T09:35:03;100832.97;;;33.32;42.76
15193;BME280;7697;51.630;7.484;2022-08-03T09:40:07;100821.06;;;33.16;42.76
15193;BME280;7697;51.630;7.484;2022-08-03T09:45:25;100820.84;;;33.33;43.82
15193;BME280;7697;51.630;7.484;2022-08-03T09:50:27;100822.09;;;33.88;41.35
15193;BME280;7697;51.630;7.484;2022-08-03T09:55:30;100834.91;;;34.12;40.45
15193;BME280;7697;51.630;7.484;2022-08-03T10:00:32;100828.72;;;33.87;40.90
15193;BME280;7697;51.630;7.484;2022-08-03T10:05:53;100815.75;;;34.15;42.10
15193;BME280;7697;51.630;7.484;2022-08-03T10:10:56;100822.84;;;34.60;39.65
15193;BME280;7697;51.630;7.484;2022-08-03T10:16:00;100818.06;;;34.88;39.65
15193;BME280;7697;51.630;7.484;2022-08-03T10:21:07;100812.25;;;34.93;39.62
15193;BME280;7697;51.630;7.484;2022-08-03T10:26:12;100812.09;;;34.86;39.40
15193;BME280;7697;51.630;7.484;2022-08-03T10:31:17;100818.28;;;35.15;37.34
15193;BME280;7697;51.630;7.484;2022-08-03T10:36:22;100807.81;;;35.40;37.63
15193;BME280;7697;51.630;7.484;2022-08-03T10:41:30;100805.66;;;35.14;38.56
15193;BME280;7697;51.630;7.484;2022-08-03T10:46:33;100804.56;;;35.34;38.88
15193;BME280;7697;51.630;7.484;2022-08-03T10:51:37;100791.63;;;35.38;37.51
15193;BME280;7697;51.630;7.484;2022-08-03T10:56:41;100800.84;;;35.46;38.12
15193;BME280;7697;51.630;7.484;2022-08-03T11:02:00;100786.22;;;35.61;37.34
15193;BME280;7697;51.630;7.484;2022-08-03T11:07:19;100790.53;;;35.78;36.44
15193;BME280;7697;51.630;7.484;2022-08-03T11:12:24;100785.34;;;35.95;36.89
15193;BME280;7697;51.630;7.484;2022-08-03T11:17:26;100789.03;;;36.03;36.90
15193;BME280;7697;51.630;7.484;2022-08-03T11:22:47;100779.81;;;36.18;36.19
15193;BME280;7697;51.630;7.484;2022-08-03T11:28:23;100785.69;;;35.94;36.18
15193;BME280;7697;51.630;7.484;2022-08-03T11:33:29;100777.28;;;35.87;36.71
15193;BME280;7697;51.630;7.484;2022-08-03T11:38:30;100779.38;;;36.16;36.72
15193;BME280;7697;51.630;7.484;2022-08-03T11:43:45;100790.44;;;36.85;34.92
15193;BME280;7697;51.630;7.484;2022-08-03T11:48:49;100791.00;;;36.97;34.23
15193;BME280;7697;51.630;7.484;2022-08-03T11:53:53;100787.28;;;37.39;34.51
15193;BME280;7697;51.630;7.484;2022-08-03T11:58:56;100788.66;;;37.55;33.28
15193;BME280;7697;51.630;7.484;2022-08-03T12:04:02;100793.75;;;37.83;33.68
15193;BME280;7697;51.630;7.484;2022-08-03T12:09:14;100795.38;;;37.88;33.84
15193;BME280;7697;51.630;7.484;2022-08-03T12:14:17;100787.44;;;37.86;33.38
15193;BME280;7697;51.630;7.484;2022-08-03T12:19:19;100778.56;;;37.67;33.45
15193;BME280;7697;51.630;7.484;2022-08-03T12:24:21;100784.69;;;37.53;33.26
15193;BME280;7697;51.630;7.484;2022-08-03T12:29:24;100774.56;;;37.64;32.09
15193;BME280;7697;51.630;7.484;2022-08-03T12:34:43;100774.78;;;37.85;32.83
15193;BME280;7697;51.630;7.484;2022-08-03T12:39:49;100773.50;;;38.13;32.82
15193;BME280;7697;51.630;7.484;2022-08-03T12:44:52;100768.69;;;38.47;31.97
15193;BME280;7697;51.630;7.484;2022-08-03T12:49:54;100771.72;;;38.82;31.50
15193;BME280;7697;51.630;7.484;2022-08-03T12:54:57;100765.38;;;38.85;30.83
15193;BME280;7697;51.630;7.484;2022-08-03T13:00:09;100761.38;;;38.76;32.45
15193;BME280;7697;51.630;7.484;2022-08-03T13:05:12;100762.69;;;38.92;31.46
15193;BME280;7697;51.630;7.484;2022-08-03T13:10:26;100755.34;;;38.59;32.48
15193;BME280;7697;51.630;7.484;2022-08-03T13:15:30;100757.41;;;38.77;31.28
15193;BME280;7697;51.630;7.484;2022-08-03T13:20:31;100752.56;;;38.59;33.61
15193;BME280;7697;51.630;7.484;2022-08-03T13:25:34;100747.28;;;38.44;31.12
15193;BME280;7697;51.630;7.484;2022-08-03T13:30:37;100753.25;;;38.46;32.34
15193;BME280;7697;51.630;7.484;2022-08-03T13:35:38;100745.59;;;38.32;31.29
15193;BME280;7697;51.630;7.484;2022-08-03T13:40:40;100742.81;;;38.28;31.74
15193;BME280;7697;51.630;7.484;2022-08-03T13:45:43;100737.00;;;38.04;31.58
15193;BME280;7697;51.630;7.484;2022-08-03T13:50:45;100731.69;;;38.25;31.95
15193;BME280;7697;51.630;7.484;2022-08-03T13:55:46;100735.84;;;38.49;32.32
15193;BME280;7697;51.630;7.484;2022-08-03T14:00:49;100727.09;;;38.43;31.34
15193;BME280;7697;51.630;7.484;2022-08-03T14:05:51;100722.44;;;38.51;31.66
15193;BME280;7697;51.630;7.484;2022-08-03T14:10:52;100721.97;;;38.49;31.72
15193;BME280;7697;51.630;7.484;2022-08-03T14:15:55;100704.53;;;38.41;32.22
15193;BME280;7697;51.630;7.484;2022-08-03T14:20:58;100710.25;;;38.15;32.44
15193;BME280;7697;51.630;7.484;2022-08-03T14:25:59;100706.44;;;38.34;31.97
15193;BME280;7697;51.630;7.484;2022-08-03T14:31:03;100709.78;;;38.53;32.22
15193;BME280;7697;51.630;7.484;2022-08-03T14:36:05;100700.72;;;38.60;31.73
15193;BME280;7697;51.630;7.484;2022-08-03T14:41:06;100700.88;;;38.26;32.60
15193;BME280;7697;51.630;7.484;2022-08-03T14:46:09;100698.72;;;38.06;32.05
15193;BME280;7697;51.630;7.484;2022-08-03T14:51:11;100691.94;;;38.00;32.29
15193;BME280;7697;51.630;7.484;2022-08-03T14:56:13;100681.91;;;37.84;32.79
15193;BME280;7697;51.630;7.484;2022-08-03T15:01:16;100684.63;;;37.81;33.04
15193;BME280;7697;51.630;7.484;2022-08-03T15:06:17;100691.28;;;37.73;33.66
15193;BME280;7697;51.630;7.484;2022-08-03T15:11:19;100677.41;;;37.69;33.05
15193;BME280;7697;51.630;7.484;2022-08-03T15:16:22;100668.03;;;37.10;33.39
15193;BME280;7697;51.630;7.484;2022-08-03T15:21:24;100668.47;;;37.12;33.98
15193;BME280;7697;51.630;7.484;2022-08-03T15:26:25;100668.34;;;37.35;34.32
15193;BME280;7697;51.630;7.484;2022-08-03T15:31:31;100668.28;;;37.32;34.85
15193;BME280;7697;51.630;7.484;2022-08-03T15:36:33;100665.69;;;37.12;35.25
15193;BME280;7697;51.630;7.484;2022-08-03T15:41:34;100659.28;;;37.05;34.99
15193;BME280;7697;51.630;7.484;2022-08-03T15:46:37;100651.25;;;36.93;34.53
15193;BME280;7697;51.630;7.484;2022-08-03T15:51:39;100654.72;;;36.86;34.67
15193;BME280;7697;51.630;7.484;2022-08-03T15:56:41;100653.75;;;37.05;34.25
15193;BME280;7697;51.630;7.484;2022-08-03T16:01:46;100657.66;;;37.00;33.52
15193;BME280;7697;51.630;7.484;2022-08-03T16:06:48;100654.50;;;37.02;35.00
15193;BME280;7697;51.630;7.484;2022-08-03T16:11:49;100661.28;;;36.78;34.95
15193;BME280;7697;51.630;7.484;2022-08-03T16:16:52;100646.03;;;36.58;34.56
15193;BME280;7697;51.630;7.484;2022-08-03T16:21:54;100640.41;;;36.51;33.18
15193;BME280;7697;51.630;7.484;2022-08-03T16:26:56;100651.72;;;36.19;34.26
15193;BME280;7697;51.630;7.484;2022-08-03T16:31:59;100637.22;;;35.99;34.21
15193;BME280;7697;51.630;7.484;2022-08-03T16:37:06;100646.44;;;35.84;35.54
15193;BME280;7697;51.630;7.484;2022-08-03T16:42:08;100633.78;;;35.60;35.67
15193;BME280;7697;51.630;7.484;2022-08-03T16:47:11;100636.06;;;35.35;36.34
15193;BME280;7697;51.630;7.484;2022-08-03T16:52:13;100627.75;;;35.13;36.31
15193;BME280;7697;51.630;7.484;2022-08-03T16:57:15;100632.09;;;34.94;36.41
15193;BME280;7697;51.630;7.484;2022-08-03T17:02:20;100634.13;;;34.78;36.09
15193;BME280;7697;51.630;7.484;2022-08-03T17:07:22;100632.63;;;34.65;37.39
15193;BME280;7697;51.630;7.484;2022-08-03T17:12:24;100624.25;;;35.35;33.97
15193;BME280;7697;51.630;7.484;2022-08-03T17:17:30;100630.44;;;34.55;36.11
15193;BME280;7697;51.630;7.484;2022-08-03T17:22:33;100627.91;;;34.31;37.04
15193;BME280;7697;51.630;7.484;2022-08-03T17:27:38;100628.09;;;34.06;37.22
15193;BME280;7697;51.630;7.484;2022-08-03T17:32:44;100628.03;;;33.87;37.94
15193;BME280;7697;51.630;7.484;2022-08-03T17:37:46;100626.94;;;33.76;37.86
15193;BME280;7697;51.630;7.484;2022-08-03T17:42:48;100633.38;;;33.68;37.18
15193;BME280;7697;51.630;7.484;2022-08-03T17:47:51;100633.47;;;34.50;35.34
15193;BME280;7697;51.630;7.484;2022-08-03T17:53:01;100637.75;;;33.69;37.70
15193;BME280;7697;51.630;7.484;2022-08-03T17:58:09;100636.28;;;33.43;37.72
15193;BME280;7697;51.630;7.484;2022-08-03T18:03:21;100636.59;;;33.26;38.52
15193;BME280;7697;51.630;7.484;2022-08-03T18:08:26;100636.88;;;33.09;39.57
15193;BME280;7697;51.630;7.484;2022-08-03T18:13:33;100629.59;;;33.01;39.79
15193;BME280;7697;51.630;7.484;2022-08-03T18:18:42;100632.91;;;32.94;40.36
15193;BME280;7697;51.630;7.484;2022-08-03T18:23:44;100629.75;;;32.80;40.82
15193;BME280;7697;51.630;7.484;2022-08-03T18:28:51;100635.41;;;32.71;40.93
15193;BME280;7697;51.630;7.484;2022-08-03T18:33:54;100634.16;;;32.57;41.03
15193;BME280;7697;51.630;7.484;2022-08-03T18:38:57;100631.75;;;32.43;41.51
15193;BME280;7697;51.630;7.484;2022-08-03T18:44:00;100641.16;;;32.30;41.39
15193;BME280;7697;51.630;7.484;2022-08-03T18:49:10;100636.88;;;32.08;41.65
15193;BME280;7697;51.630;7.484;2022-08-03T18:54:17;100643.38;;;31.91;42.66
15193;BME280;7697;51.630;7.484;2022-08-03T18:59:24;100645.06;;;31.72;43.46
15193;BME280;7697;51.630;7.484;2022-08-03T19:04:31;100645.34;;;31.58;43.30
15193;BME280;7697;51.630;7.484;2022-08-03T19:09:39;100648.72;;;31.43;43.28
15193;BME280;7697;51.630;7.484;2022-08-03T19:14:51;100652.22;;;31.31;44.09
15193;BME280;7697;51.630;7.484;2022-08-03T19:19:56;100650.09;;;31.16;44.05
15193;BME280;7697;51.630;7.484;2022-08-03T19:24:59;100646.56;;;30.94;44.85
15193;BME280;7697;51.630;7.484;2022-08-03T19:30:04;100652.59;;;30.79;45.78
15193;BME280;7697;51.630;7.484;2022-08-03T19:35:08;100652.13;;;30.56;45.56
15193;BME280;7697;51.630;7.484;2022-08-03T19:40:10;100654.47;;;30.37;46.73
15193;BME280;7697;51.630;7.484;2022-08-03T19:45:16;100657.28;;;30.20;46.96
15193;BME280;7697;51.630;7.484;2022-08-03T19:50:23;100671.94;;;30.07;47.89
15193;BME280;7697;51.630;7.484;2022-08-03T19:55:27;100669.25;;;29.90;48.36
15193;BME280;7697;51.630;7.484;2022-08-03T20:00:29;100659.03;;;29.78;48.87
15193;BME280;7697;51.630;7.484;2022-08-03T20:05:33;100657.44;;;29.68;48.94
15193;BME280;7697;51.630;7.484;2022-08-03T20:10:35;100663.88;;;29.55;49.47
15193;BME280;7697;51.630;7.484;2022-08-03T20:15:51;100658.94;;;29.40;50.35
15193;BME280;7697;51.630;7.484;2022-08-03T20:20:55;100650.09;;;29.26;50.56
15193;BME280;7697;51.630;7.484;2022-08-03T20:25:59;100647.84;;;29.10;50.92
15193;BME280;7697;51.630;7.484;2022-08-03T20:31:02;100656.03;;;29.02;51.40
15193;BME280;7697;51.630;7.484;2022-08-03T20:36:04;100650.09;;;28.91;51.67
15193;BME280;7697;51.630;7.484;2022-08-03T20:41:06;100652.00;;;28.82;51.86
15193;BME280;7697;51.630;7.484;2022-08-03T20:46:09;100659.34;;;28.73;51.82
15193;BME280;7697;51.630;7.484;2022-08-03T20:51:11;100658.84;;;28.62;52.35
15193;BME280;7697;51.630;7.484;2022-08-03T20:56:13;100660.75;;;28.53;52.85
15193;BME280;7697;51.630;7.484;2022-08-03T21:01:16;100661.84;;;28.44;53.62
15193;BME280;7697;51.630;7.484;2022-08-03T21:06:20;100667.28;;;28.35;53.68
15193;BME280;7697;51.630;7.484;2022-08-03T21:11:23;100669.47;;;28.24;54.16
15193;BME280;7697;51.630;7.484;2022-08-03T21:16:31;100660.44;;;28.15;54.24
15193;BME280;7697;51.630;7.484;2022-08-03T21:21:37;100651.25;;;28.02;55.09
15193;BME280;7697;51.630;7.484;2022-08-03T21:26:39;100647.22;;;27.91;55.27
15193;BME280;7697;51.630;7.484;2022-08-03T21:31:43;100643.94;;;27.81;55.63
15193;BME280;7697;51.630;7.484;2022-08-03T21:36:44;100643.91;;;27.72;56.25
15193;BME280;7697;51.630;7.484;2022-08-03T21:41:46;100644.81;;;27.68;56.77
15193;BME280;7697;51.630;7.484;2022-08-03T21:46:52;100651.03;;;27.59;56.90
15193;BME280;7697;51.630;7.484;2022-08-03T21:51:56;100648.53;;;27.49;56.12
15193;BME280;7697;51.630;7.484;2022-08-03T21:57:02;100643.22;;;27.44;57.29
15193;BME280;7697;51.630;7.484;2022-08-03T22:02:07;100644.56;;;27.33;58.30
15193;BME280;7697;51.630;7.484;2022-08-03T22:07:09;100647.16;;;27.16;57.75
15193;BME280;7697;51.630;7.484;2022-08-03T22:12:11;100650.94;;;27.06;58.41
15193;BME280;7697;51.630;7.484;2022-08-03T22:17:14;100651.97;;;26.97;59.06
15193;BME280;7697;51.630;7.484;2022-08-03T22:22:16;100650.44;;;26.90;59.22
15193;BME280;7697;51.630;7.484;2022-08-03T22:27:19;100649.34;;;26.78;59.10
15193;BME280;7697;51.630;7.484;2022-08-03T22:32:36;100645.16;;;26.72;60.52
15193;BME280;7697;51.630;7.484;2022-08-03T22:37:39;100647.28;;;26.61;60.59
15193;BME280;7697;51.630;7.484;2022-08-03T22:42:43;100653.72;;;26.51;60.54
15193;BME280;7697;51.630;7.484;2022-08-03T22:47:50;100649.50;;;26.45;61.06
15193;BME280;7697;51.630;7.484;2022-08-03T22:52:52;100652.13;;;26.37;61.94
15193;BME280;7697;51.630;7.484;2022-08-03T22:57:54;100646.91;;;26.27;61.47
15193;BME280;7697;51.630;7.484;2022-08-03T23:02:59;100644.34;;;26.16;62.08
15193;BME280;7697;51.630;7.484;2022-08-03T23:08:03;100642.63;;;26.07;62.76
15193;BME280;7697;51.630;7.484;2022-08-03T23:13:06;100646.84;;;25.99;63.16
15193;BME280;7697;51.630;7.484;2022-08-03T23:18:09;100643.75;;;25.92;63.43
15193;BME280;7697;51.630;7.484;2022-08-03T23:23:11;100652.75;;;25.88;63.71
15193;BME280;7697;51.630;7.484;2022-08-03T23:28:13;100648.03;;;25.79;nan
15193;BME280;7697;51.630;7.484;2022-08-03T23:33:18;100650.72;;;25.66;64.55
15193;BME280;7697;51.630;7.484;2022-08-03T23:38:23;100652.47;;;25.57;64.46
15193;BME280;7697;51.630;7.484;2022-08-03T23:43:25;100645.03;;;25.49;64.74
15193;BME280;7697;51.630;7.484;2022-08-03T23:48:29;100637.25;;;25.42;65.31
15193;BME280;7697;51.630;7.484;2022-08-03T23:53:39;100645.47;;;25.37;66.23
15193;BME280;7697;51.630;7.484;2022-08-03T23:58:51;100645.34;;;25.28;66.19
